sensor_id;sensor_type;location;lat;lon;timestamp;P1;durP1;ratioP1;P2;durP2;ratioP2
48327;SDS011;34136;51.022;7.082;2022-09-06T00:02:23;3.60;;;1.80;;
48327;SDS011;34136;51.022;7.082;2022-09-06T00:05:10;4.20;;;1.40;;
48327;SDS011;34136;51.022;7.082;2022-09-06T00:08:00;3.30;;;1.38;;
48327;SDS011;34136;51.022;7.082;2022-09-06T00:10:55;2.95;;;1.50;;
48327;SDS011;34136;51.022;7.082;2022-09-06T00:13:42;2.85;;;1.33;;
48327;SDS011;34136;51.022;7.082;2022-09-06T00:16:29;4.30;;;1.50;;
48327;SDS011;34136;51.022;7.082;2022-09-06T00:19:15;4.60;;;1.50;;
48327;SDS011;34136;51.022;7.082;2022-09-06T00:22:01;2.28;;;1.40;;
48327;SDS011;34136;51.022;7.082;2022-09-06T00:24:48;1.90;;;1.50;;
48327;SDS011;34136;51.022;7.082;2022-09-06T00:27:34;2.38;;;1.48;;
48327;SDS011;34136;51.022;7.082;2022-09-06T00:30:21;2.55;;;1.50;;
48327;SDS011;34136;51.022;7.082;2022-09-06T00:33:07;3.08;;;1.30;;
48327;SDS011;34136;51.022;7.082;2022-09-06T00:35:57;15.80;;;4.43;;
48327;SDS011;34136;51.022;7.082;2022-09-06T00:38:44;6.53;;;2.47;;
48327;SDS011;34136;51.022;7.082;2022-09-06T00:41:30;3.20;;;1.92;;
48327;SDS011;34136;51.022;7.082;2022-09-06T00:44:17;4.72;;;2.10;;
48327;SDS011;34136;51.022;7.082;2022-09-06T00:47:03;9.50;;;2.10;;
48327;SDS011;34136;51.022;7.082;2022-09-06T00:49:52;3.90;;;2.17;;
48327;SDS011;34136;51.022;7.082;2022-09-06T00:52:40;5.43;;;2.20;;
48327;SDS011;34136;51.022;7.082;2022-09-06T00:55:28;4.80;;;2.60;;
48327;SDS011;34136;51.022;7.082;2022-09-06T00:58:14;4.63;;;2.67;;
48327;SDS011;34136;51.022;7.082;2022-09-06T01:01:01;3.85;;;2.45;;
48327;SDS011;34136;51.022;7.082;2022-09-06T01:03:48;4.00;;;2.70;;
48327;SDS011;34136;51.022;7.082;2022-09-06T01:30:13;3.95;;;3.00;;
48327;SDS011;34136;51.022;7.082;2022-09-06T01:33:09;10.13;;;3.75;;
48327;SDS011;34136;51.022;7.082;2022-09-06T01:36:03;8.25;;;3.70;;
48327;SDS011;34136;51.022;7.082;2022-09-06T01:38:53;6.95;;;3.63;;
48327;SDS011;34136;51.022;7.082;2022-09-06T01:41:39;4.95;;;3.40;;
48327;SDS011;34136;51.022;7.082;2022-09-06T01:44:25;9.13;;;3.90;;
48327;SDS011;34136;51.022;7.082;2022-09-06T01:47:21;7.65;;;3.90;;
48327;SDS011;34136;51.022;7.082;2022-09-06T01:53:26;9.20;;;3.60;;
48327;SDS011;34136;51.022;7.082;2022-09-06T01:56:31;6.32;;;3.05;;
48327;SDS011;34136;51.022;7.082;2022-09-06T02:02:31;4.53;;;3.22;;
48327;SDS011;34136;51.022;7.082;2022-09-06T02:08:32;6.38;;;3.78;;
48327;SDS011;34136;51.022;7.082;2022-09-06T02:11:23;4.97;;;3.92;;
48327;SDS011;34136;51.022;7.082;2022-09-06T02:14:16;5.47;;;4.18;;
48327;SDS011;34136;51.022;7.082;2022-09-06T02:17:16;6.88;;;4.20;;
48327;SDS011;34136;51.022;7.082;2022-09-06T02:20:09;5.93;;;4.18;;
48327;SDS011;34136;51.022;7.082;2022-09-06T02:23:02;8.10;;;4.30;;
48327;SDS011;34136;51.022;7.082;2022-09-06T02:25:54;12.38;;;5.35;;
48327;SDS011;34136;51.022;7.082;2022-09-06T02:28:47;9.35;;;5.10;;
48327;SDS011;34136;51.022;7.082;2022-09-06T02:31:36;9.07;;;5.30;;
48327;SDS011;34136;51.022;7.082;2022-09-06T02:34:26;7.15;;;4.80;;
48327;SDS011;34136;51.022;7.082;2022-09-06T02:37:12;10.10;;;4.97;;
48327;SDS011;34136;51.022;7.082;2022-09-06T02:40:01;7.00;;;4.47;;
48327;SDS011;34136;51.022;7.082;2022-09-06T02:42:48;7.95;;;4.28;;
48327;SDS011;34136;51.022;7.082;2022-09-06T02:45:34;8.07;;;4.07;;
48327;SDS011;34136;51.022;7.082;2022-09-06T02:48:20;6.70;;;3.80;;
48327;SDS011;34136;51.022;7.082;2022-09-06T02:51:07;6.07;;;4.00;;
48327;SDS011;34136;51.022;7.082;2022-09-06T02:53:54;7.07;;;4.00;;
48327;SDS011;34136;51.022;7.082;2022-09-06T02:56:40;5.57;;;4.20;;
48327;SDS011;34136;51.022;7.082;2022-09-06T02:59:26;7.00;;;4.30;;
48327;SDS011;34136;51.022;7.082;2022-09-06T03:02:13;5.20;;;4.15;;
48327;SDS011;34136;51.022;7.082;2022-09-06T03:04:59;7.55;;;5.38;;
48327;SDS011;34136;51.022;7.082;2022-09-06T03:07:46;7.03;;;5.45;;
48327;SDS011;34136;51.022;7.082;2022-09-06T03:10:32;10.38;;;6.70;;
48327;SDS011;34136;51.022;7.082;2022-09-06T03:13:19;8.40;;;5.85;;
48327;SDS011;34136;51.022;7.082;2022-09-06T03:16:05;9.25;;;5.00;;
48327;SDS011;34136;51.022;7.082;2022-09-06T03:18:52;11.13;;;5.50;;
48327;SDS011;34136;51.022;7.082;2022-09-06T03:21:38;11.27;;;5.90;;
48327;SDS011;34136;51.022;7.082;2022-09-06T03:24:25;9.98;;;5.05;;
48327;SDS011;34136;51.022;7.082;2022-09-06T03:27:11;8.43;;;5.50;;
48327;SDS011;34136;51.022;7.082;2022-09-06T03:29:57;10.00;;;5.50;;
48327;SDS011;34136;51.022;7.082;2022-09-06T03:32:44;7.45;;;4.75;;
48327;SDS011;34136;51.022;7.082;2022-09-06T03:35:30;7.95;;;5.20;;
48327;SDS011;34136;51.022;7.082;2022-09-06T03:38:16;6.70;;;4.80;;
48327;SDS011;34136;51.022;7.082;2022-09-06T03:41:03;6.93;;;4.95;;
48327;SDS011;34136;51.022;7.082;2022-09-06T03:43:50;6.72;;;4.60;;
48327;SDS011;34136;51.022;7.082;2022-09-06T03:46:36;7.97;;;5.10;;
48327;SDS011;34136;51.022;7.082;2022-09-06T03:49:23;6.00;;;4.57;;
48327;SDS011;34136;51.022;7.082;2022-09-06T03:52:09;8.27;;;5.43;;
48327;SDS011;34136;51.022;7.082;2022-09-06T03:54:55;8.43;;;4.80;;
48327;SDS011;34136;51.022;7.082;2022-09-06T03:57:41;7.32;;;4.95;;
48327;SDS011;34136;51.022;7.082;2022-09-06T04:00:28;7.47;;;4.78;;
48327;SDS011;34136;51.022;7.082;2022-09-06T04:03:14;5.60;;;4.50;;
48327;SDS011;34136;51.022;7.082;2022-09-06T04:06:00;8.55;;;5.20;;
48327;SDS011;34136;51.022;7.082;2022-09-06T04:08:47;7.13;;;4.70;;
48327;SDS011;34136;51.022;7.082;2022-09-06T04:11:33;8.20;;;5.25;;
48327;SDS011;34136;51.022;7.082;2022-09-06T04:14:19;6.95;;;4.78;;
48327;SDS011;34136;51.022;7.082;2022-09-06T04:17:05;9.68;;;5.50;;
48327;SDS011;34136;51.022;7.082;2022-09-06T04:19:51;5.90;;;4.57;;
48327;SDS011;34136;51.022;7.082;2022-09-06T04:22:38;9.02;;;4.63;;
48327;SDS011;34136;51.022;7.082;2022-09-06T04:25:24;8.55;;;4.60;;
48327;SDS011;34136;51.022;7.082;2022-09-06T04:28:11;5.95;;;3.80;;
48327;SDS011;34136;51.022;7.082;2022-09-06T04:30:59;8.73;;;4.53;;
48327;SDS011;34136;51.022;7.082;2022-09-06T04:33:47;6.63;;;4.68;;
48327;SDS011;34136;51.022;7.082;2022-09-06T04:36:33;5.10;;;4.40;;
48327;SDS011;34136;51.022;7.082;2022-09-06T04:39:19;9.70;;;5.00;;
48327;SDS011;34136;51.022;7.082;2022-09-06T04:42:05;5.95;;;4.70;;
48327;SDS011;34136;51.022;7.082;2022-09-06T04:44:51;6.43;;;4.53;;
48327;SDS011;34136;51.022;7.082;2022-09-06T04:47:38;5.50;;;4.40;;
48327;SDS011;34136;51.022;7.082;2022-09-06T04:50:24;5.07;;;4.35;;
48327;SDS011;34136;51.022;7.082;2022-09-06T04:53:23;6.50;;;4.70;;
48327;SDS011;34136;51.022;7.082;2022-09-06T04:56:10;6.25;;;4.53;;
48327;SDS011;34136;51.022;7.082;2022-09-06T04:59:02;6.65;;;4.50;;
48327;SDS011;34136;51.022;7.082;2022-09-06T05:01:48;6.10;;;4.20;;
48327;SDS011;34136;51.022;7.082;2022-09-06T05:04:35;7.97;;;5.20;;
48327;SDS011;34136;51.022;7.082;2022-09-06T05:07:21;8.07;;;5.13;;
48327;SDS011;34136;51.022;7.082;2022-09-06T05:10:07;5.60;;;4.13;;
48327;SDS011;34136;51.022;7.082;2022-09-06T05:12:54;6.75;;;4.55;;
48327;SDS011;34136;51.022;7.082;2022-09-06T05:15:40;6.57;;;4.43;;
48327;SDS011;34136;51.022;7.082;2022-09-06T05:18:26;8.85;;;4.93;;
48327;SDS011;34136;51.022;7.082;2022-09-06T05:21:13;8.32;;;4.70;;
48327;SDS011;34136;51.022;7.082;2022-09-06T05:23:59;7.75;;;4.70;;
48327;SDS011;34136;51.022;7.082;2022-09-06T05:26:46;6.50;;;4.82;;
48327;SDS011;34136;51.022;7.082;2022-09-06T05:29:33;7.95;;;4.28;;
48327;SDS011;34136;51.022;7.082;2022-09-06T05:32:19;5.63;;;4.45;;
48327;SDS011;34136;51.022;7.082;2022-09-06T05:35:05;6.57;;;4.82;;
48327;SDS011;34136;51.022;7.082;2022-09-06T05:37:52;9.00;;;4.57;;
48327;SDS011;34136;51.022;7.082;2022-09-06T05:40:39;8.30;;;5.00;;
48327;SDS011;34136;51.022;7.082;2022-09-06T05:43:25;7.13;;;5.43;;
48327;SDS011;34136;51.022;7.082;2022-09-06T05:46:12;8.40;;;5.32;;
48327;SDS011;34136;51.022;7.082;2022-09-06T05:48:59;7.38;;;5.18;;
48327;SDS011;34136;51.022;7.082;2022-09-06T05:51:48;6.65;;;5.10;;
48327;SDS011;34136;51.022;7.082;2022-09-06T05:54:35;7.25;;;5.05;;
48327;SDS011;34136;51.022;7.082;2022-09-06T05:57:21;7.95;;;5.32;;
48327;SDS011;34136;51.022;7.082;2022-09-06T06:00:08;9.18;;;5.28;;
48327;SDS011;34136;51.022;7.082;2022-09-06T06:02:56;5.65;;;4.70;;
48327;SDS011;34136;51.022;7.082;2022-09-06T06:05:46;5.95;;;4.63;;
48327;SDS011;34136;51.022;7.082;2022-09-06T06:08:33;6.32;;;5.05;;
48327;SDS011;34136;51.022;7.082;2022-09-06T06:11:20;6.28;;;4.75;;
48327;SDS011;34136;51.022;7.082;2022-09-06T06:14:07;5.97;;;4.40;;
48327;SDS011;34136;51.022;7.082;2022-09-06T06:16:54;8.05;;;4.97;;
48327;SDS011;34136;51.022;7.082;2022-09-06T06:19:40;7.63;;;4.75;;
48327;SDS011;34136;51.022;7.082;2022-09-06T06:22:27;5.65;;;4.63;;
48327;SDS011;34136;51.022;7.082;2022-09-06T06:25:13;7.53;;;4.65;;
48327;SDS011;34136;51.022;7.082;2022-09-06T06:28:00;9.23;;;4.97;;
48327;SDS011;34136;51.022;7.082;2022-09-06T06:30:46;6.13;;;4.50;;
48327;SDS011;34136;51.022;7.082;2022-09-06T06:33:32;6.13;;;4.20;;
48327;SDS011;34136;51.022;7.082;2022-09-06T06:36:23;5.53;;;4.22;;
48327;SDS011;34136;51.022;7.082;2022-09-06T06:39:11;4.57;;;4.18;;
48327;SDS011;34136;51.022;7.082;2022-09-06T06:41:57;8.55;;;4.38;;
48327;SDS011;34136;51.022;7.082;2022-09-06T06:44:52;7.10;;;4.85;;
48327;SDS011;34136;51.022;7.082;2022-09-06T06:47:39;6.68;;;4.03;;
48327;SDS011;34136;51.022;7.082;2022-09-06T06:50:25;5.22;;;3.75;;
48327;SDS011;34136;51.022;7.082;2022-09-06T06:53:12;5.28;;;3.95;;
48327;SDS011;34136;51.022;7.082;2022-09-06T06:55:58;5.53;;;3.63;;
48327;SDS011;34136;51.022;7.082;2022-09-06T06:58:45;4.93;;;3.67;;
48327;SDS011;34136;51.022;7.082;2022-09-06T07:01:33;5.63;;;3.70;;
48327;SDS011;34136;51.022;7.082;2022-09-06T07:04:21;6.82;;;3.30;;
48327;SDS011;34136;51.022;7.082;2022-09-06T07:07:07;5.72;;;3.63;;
48327;SDS011;34136;51.022;7.082;2022-09-06T07:09:54;5.93;;;3.58;;
48327;SDS011;34136;51.022;7.082;2022-09-06T07:12:40;4.80;;;2.70;;
48327;SDS011;34136;51.022;7.082;2022-09-06T07:15:27;5.95;;;2.85;;
48327;SDS011;34136;51.022;7.082;2022-09-06T07:18:16;5.25;;;3.00;;
48327;SDS011;34136;51.022;7.082;2022-09-06T07:21:03;8.07;;;2.67;;
48327;SDS011;34136;51.022;7.082;2022-09-06T07:23:49;6.03;;;3.30;;
48327;SDS011;34136;51.022;7.082;2022-09-06T07:26:36;5.75;;;2.83;;
48327;SDS011;34136;51.022;7.082;2022-09-06T07:29:24;3.42;;;2.67;;
48327;SDS011;34136;51.022;7.082;2022-09-06T07:32:10;3.47;;;2.38;;
48327;SDS011;34136;51.022;7.082;2022-09-06T07:34:57;3.65;;;2.10;;
48327;SDS011;34136;51.022;7.082;2022-09-06T07:37:50;5.63;;;2.30;;
48327;SDS011;34136;51.022;7.082;2022-09-06T07:40:40;4.43;;;2.03;;
48327;SDS011;34136;51.022;7.082;2022-09-06T07:43:26;5.85;;;2.20;;
48327;SDS011;34136;51.022;7.082;2022-09-06T07:46:14;7.47;;;2.63;;
48327;SDS011;34136;51.022;7.082;2022-09-06T07:49:05;4.45;;;2.40;;
48327;SDS011;34136;51.022;7.082;2022-09-06T07:51:51;5.03;;;2.25;;
48327;SDS011;34136;51.022;7.082;2022-09-06T07:54:37;2.80;;;1.70;;
48327;SDS011;34136;51.022;7.082;2022-09-06T07:57:23;3.05;;;1.88;;
48327;SDS011;34136;51.022;7.082;2022-09-06T08:00:10;5.07;;;1.63;;
48327;SDS011;34136;51.022;7.082;2022-09-06T08:02:57;5.25;;;1.30;;
48327;SDS011;34136;51.022;7.082;2022-09-06T08:05:47;3.40;;;1.58;;
48327;SDS011;34136;51.022;7.082;2022-09-06T08:08:33;3.47;;;1.50;;
48327;SDS011;34136;51.022;7.082;2022-09-06T08:11:20;4.45;;;1.30;;
48327;SDS011;34136;51.022;7.082;2022-09-06T08:14:08;4.05;;;1.35;;
48327;SDS011;34136;51.022;7.082;2022-09-06T08:16:54;4.95;;;1.20;;
48327;SDS011;34136;51.022;7.082;2022-09-06T08:19:41;3.45;;;1.10;;
48327;SDS011;34136;51.022;7.082;2022-09-06T08:22:30;3.00;;;1.20;;
48327;SDS011;34136;51.022;7.082;2022-09-06T08:25:17;2.28;;;1.30;;
48327;SDS011;34136;51.022;7.082;2022-09-06T08:28:03;1.75;;;1.00;;
48327;SDS011;34136;51.022;7.082;2022-09-06T08:30:50;2.20;;;1.10;;
48327;SDS011;34136;51.022;7.082;2022-09-06T08:33:37;2.10;;;1.00;;
48327;SDS011;34136;51.022;7.082;2022-09-06T08:36:25;3.30;;;1.30;;
48327;SDS011;34136;51.022;7.082;2022-09-06T08:39:12;2.13;;;0.95;;
48327;SDS011;34136;51.022;7.082;2022-09-06T08:42:03;1.70;;;0.77;;
48327;SDS011;34136;51.022;7.082;2022-09-06T08:44:51;2.47;;;0.90;;
48327;SDS011;34136;51.022;7.082;2022-09-06T08:47:38;1.58;;;1.13;;
48327;SDS011;34136;51.022;7.082;2022-09-06T08:50:24;1.35;;;0.80;;
48327;SDS011;34136;51.022;7.082;2022-09-06T08:53:15;1.83;;;1.00;;
48327;SDS011;34136;51.022;7.082;2022-09-06T08:56:04;1.75;;;1.00;;
48327;SDS011;34136;51.022;7.082;2022-09-06T08:59:03;1.60;;;0.90;;
48327;SDS011;34136;51.022;7.082;2022-09-06T09:05:04;2.65;;;0.95;;
48327;SDS011;34136;51.022;7.082;2022-09-06T09:16:32;2.88;;;0.90;;
48327;SDS011;34136;51.022;7.082;2022-09-06T09:19:19;1.17;;;0.70;;
48327;SDS011;34136;51.022;7.082;2022-09-06T09:22:05;1.52;;;0.80;;
48327;SDS011;34136;51.022;7.082;2022-09-06T09:24:52;2.25;;;0.82;;
48327;SDS011;34136;51.022;7.082;2022-09-06T09:27:40;1.05;;;0.70;;
48327;SDS011;34136;51.022;7.082;2022-09-06T09:30:43;2.17;;;1.10;;
48327;SDS011;34136;51.022;7.082;2022-09-06T09:33:32;1.63;;;0.95;;
48327;SDS011;34136;51.022;7.082;2022-09-06T09:36:20;1.80;;;1.00;;
48327;SDS011;34136;51.022;7.082;2022-09-06T09:39:10;3.47;;;1.02;;
48327;SDS011;34136;51.022;7.082;2022-09-06T09:41:57;1.60;;;0.98;;
48327;SDS011;34136;51.022;7.082;2022-09-06T09:44:43;2.00;;;1.10;;
48327;SDS011;34136;51.022;7.082;2022-09-06T09:47:30;3.17;;;1.15;;
48327;SDS011;34136;51.022;7.082;2022-09-06T09:50:25;1.73;;;0.93;;
48327;SDS011;34136;51.022;7.082;2022-09-06T09:53:15;1.92;;;1.08;;
48327;SDS011;34136;51.022;7.082;2022-09-06T09:56:04;2.37;;;0.93;;
48327;SDS011;34136;51.022;7.082;2022-09-06T09:58:50;2.55;;;0.80;;
48327;SDS011;34136;51.022;7.082;2022-09-06T10:01:39;1.75;;;0.98;;
48327;SDS011;34136;51.022;7.082;2022-09-06T10:04:33;1.98;;;0.93;;
48327;SDS011;34136;51.022;7.082;2022-09-06T10:07:30;4.88;;;1.00;;
48327;SDS011;34136;51.022;7.082;2022-09-06T10:16:08;2.40;;;1.00;;
48327;SDS011;34136;51.022;7.082;2022-09-06T10:18:55;2.13;;;1.10;;
48327;SDS011;34136;51.022;7.082;2022-09-06T10:21:41;2.08;;;0.93;;
48327;SDS011;34136;51.022;7.082;2022-09-06T10:27:31;1.60;;;0.80;;
48327;SDS011;34136;51.022;7.082;2022-09-06T10:30:18;2.95;;;1.00;;
48327;SDS011;34136;51.022;7.082;2022-09-06T10:33:08;1.40;;;0.82;;
48327;SDS011;34136;51.022;7.082;2022-09-06T10:36:12;2.28;;;1.00;;
48327;SDS011;34136;51.022;7.082;2022-09-06T10:42:46;2.38;;;0.98;;
48327;SDS011;34136;51.022;7.082;2022-09-06T10:45:37;2.35;;;0.80;;
48327;SDS011;34136;51.022;7.082;2022-09-06T10:48:34;3.70;;;1.25;;
48327;SDS011;34136;51.022;7.082;2022-09-06T10:54:21;2.45;;;1.27;;
48327;SDS011;34136;51.022;7.082;2022-09-06T11:00:06;1.98;;;1.02;;
48327;SDS011;34136;51.022;7.082;2022-09-06T11:05:44;2.90;;;1.02;;
48327;SDS011;34136;51.022;7.082;2022-09-06T11:11:32;4.22;;;1.02;;
48327;SDS011;34136;51.022;7.082;2022-09-06T11:14:44;2.53;;;1.30;;
48327;SDS011;34136;51.022;7.082;2022-09-06T11:26:32;3.20;;;1.20;;
48327;SDS011;34136;51.022;7.082;2022-09-06T11:29:28;3.88;;;1.30;;
48327;SDS011;34136;51.022;7.082;2022-09-06T11:35:36;3.22;;;1.10;;
48327;SDS011;34136;51.022;7.082;2022-09-06T11:38:23;2.53;;;1.20;;
48327;SDS011;34136;51.022;7.082;2022-09-06T11:41:13;3.58;;;1.45;;
48327;SDS011;34136;51.022;7.082;2022-09-06T11:44:02;3.53;;;1.60;;
48327;SDS011;34136;51.022;7.082;2022-09-06T11:49:35;2.85;;;1.20;;
48327;SDS011;34136;51.022;7.082;2022-09-06T12:04:12;3.58;;;1.45;;
48327;SDS011;34136;51.022;7.082;2022-09-06T12:07:06;3.28;;;1.30;;
48327;SDS011;34136;51.022;7.082;2022-09-06T12:09:54;6.18;;;1.33;;
48327;SDS011;34136;51.022;7.082;2022-09-06T12:12:43;3.60;;;1.50;;
48327;SDS011;34136;51.022;7.082;2022-09-06T12:15:45;4.80;;;1.30;;
48327;SDS011;34136;51.022;7.082;2022-09-06T12:21:37;2.65;;;1.27;;
48327;SDS011;34136;51.022;7.082;2022-09-06T12:24:49;3.92;;;1.30;;
48327;SDS011;34136;51.022;7.082;2022-09-06T12:30:31;2.58;;;1.25;;
48327;SDS011;34136;51.022;7.082;2022-09-06T12:33:33;3.58;;;1.38;;
48327;SDS011;34136;51.022;7.082;2022-09-06T12:36:22;4.35;;;1.35;;
48327;SDS011;34136;51.022;7.082;2022-09-06T12:39:11;5.22;;;1.42;;
48327;SDS011;34136;51.022;7.082;2022-09-06T12:42:03;3.17;;;1.27;;
48327;SDS011;34136;51.022;7.082;2022-09-06T12:44:55;5.13;;;1.55;;
48327;SDS011;34136;51.022;7.082;2022-09-06T12:47:43;4.72;;;1.30;;
48327;SDS011;34136;51.022;7.082;2022-09-06T12:50:31;4.75;;;1.33;;
48327;SDS011;34136;51.022;7.082;2022-09-06T12:53:19;4.07;;;1.38;;
48327;SDS011;34136;51.022;7.082;2022-09-06T12:56:08;3.25;;;1.25;;
48327;SDS011;34136;51.022;7.082;2022-09-06T12:59:09;5.32;;;1.42;;
48327;SDS011;34136;51.022;7.082;2022-09-06T13:02:14;8.70;;;1.77;;
48327;SDS011;34136;51.022;7.082;2022-09-06T13:05:08;6.55;;;1.50;;
48327;SDS011;34136;51.022;7.082;2022-09-06T13:07:58;4.15;;;1.55;;
48327;SDS011;34136;51.022;7.082;2022-09-06T13:10:47;4.57;;;1.35;;
48327;SDS011;34136;51.022;7.082;2022-09-06T13:13:33;3.58;;;1.55;;
48327;SDS011;34136;51.022;7.082;2022-09-06T13:16:24;6.70;;;1.50;;
48327;SDS011;34136;51.022;7.082;2022-09-06T13:19:17;4.82;;;1.60;;
48327;SDS011;34136;51.022;7.082;2022-09-06T13:22:35;3.47;;;1.50;;
48327;SDS011;34136;51.022;7.082;2022-09-06T13:25:26;5.78;;;1.40;;
48327;SDS011;34136;51.022;7.082;2022-09-06T13:28:22;3.92;;;1.38;;
48327;SDS011;34136;51.022;7.082;2022-09-06T13:31:18;4.18;;;1.50;;
48327;SDS011;34136;51.022;7.082;2022-09-06T13:34:06;4.95;;;1.60;;
48327;SDS011;34136;51.022;7.082;2022-09-06T13:36:53;6.13;;;1.40;;
48327;SDS011;34136;51.022;7.082;2022-09-06T13:39:48;5.82;;;1.75;;
48327;SDS011;34136;51.022;7.082;2022-09-06T13:42:35;3.72;;;1.60;;
48327;SDS011;34136;51.022;7.082;2022-09-06T13:48:14;7.57;;;1.58;;
48327;SDS011;34136;51.022;7.082;2022-09-06T13:51:05;3.70;;;1.30;;
48327;SDS011;34136;51.022;7.082;2022-09-06T13:54:08;5.57;;;1.40;;
48327;SDS011;34136;51.022;7.082;2022-09-06T13:56:56;3.95;;;1.40;;
48327;SDS011;34136;51.022;7.082;2022-09-06T13:59:42;4.57;;;1.33;;
48327;SDS011;34136;51.022;7.082;2022-09-06T14:02:29;3.45;;;1.33;;
48327;SDS011;34136;51.022;7.082;2022-09-06T14:05:15;3.35;;;1.20;;
48327;SDS011;34136;51.022;7.082;2022-09-06T14:08:01;5.78;;;1.30;;
48327;SDS011;34136;51.022;7.082;2022-09-06T14:10:47;4.38;;;1.23;;
48327;SDS011;34136;51.022;7.082;2022-09-06T14:13:35;3.90;;;1.35;;
48327;SDS011;34136;51.022;7.082;2022-09-06T14:16:21;3.10;;;1.25;;
48327;SDS011;34136;51.022;7.082;2022-09-06T14:19:07;2.97;;;1.10;;
48327;SDS011;34136;51.022;7.082;2022-09-06T14:21:53;7.38;;;1.70;;
48327;SDS011;34136;51.022;7.082;2022-09-06T14:24:39;2.90;;;1.17;;
48327;SDS011;34136;51.022;7.082;2022-09-06T14:27:25;3.17;;;1.20;;
48327;SDS011;34136;51.022;7.082;2022-09-06T14:30:12;2.30;;;1.13;;
48327;SDS011;34136;51.022;7.082;2022-09-06T14:32:58;2.55;;;1.30;;
48327;SDS011;34136;51.022;7.082;2022-09-06T14:35:44;2.92;;;1.20;;
48327;SDS011;34136;51.022;7.082;2022-09-06T14:38:33;5.85;;;1.50;;
48327;SDS011;34136;51.022;7.082;2022-09-06T14:41:20;2.72;;;1.27;;
48327;SDS011;34136;51.022;7.082;2022-09-06T14:44:06;4.80;;;1.30;;
48327;SDS011;34136;51.022;7.082;2022-09-06T14:46:54;4.07;;;1.17;;
48327;SDS011;34136;51.022;7.082;2022-09-06T14:49:40;4.60;;;1.60;;
48327;SDS011;34136;51.022;7.082;2022-09-06T14:52:26;5.60;;;1.60;;
48327;SDS011;34136;51.022;7.082;2022-09-06T14:55:12;3.95;;;1.77;;
48327;SDS011;34136;51.022;7.082;2022-09-06T14:57:59;3.00;;;1.48;;
48327;SDS011;34136;51.022;7.082;2022-09-06T15:00:45;3.75;;;1.40;;
48327;SDS011;34136;51.022;7.082;2022-09-06T15:03:32;4.32;;;1.35;;
48327;SDS011;34136;51.022;7.082;2022-09-06T15:06:19;3.63;;;1.65;;
48327;SDS011;34136;51.022;7.082;2022-09-06T15:09:07;4.15;;;1.27;;
48327;SDS011;34136;51.022;7.082;2022-09-06T15:11:54;3.70;;;1.27;;
48327;SDS011;34136;51.022;7.082;2022-09-06T15:14:40;5.25;;;1.40;;
48327;SDS011;34136;51.022;7.082;2022-09-06T15:17:26;3.67;;;1.80;;
48327;SDS011;34136;51.022;7.082;2022-09-06T15:20:12;7.40;;;1.80;;
48327;SDS011;34136;51.022;7.082;2022-09-06T15:22:58;6.40;;;1.73;;
48327;SDS011;34136;51.022;7.082;2022-09-06T15:25:48;5.47;;;1.52;;
48327;SDS011;34136;51.022;7.082;2022-09-06T15:28:36;5.35;;;1.42;;
48327;SDS011;34136;51.022;7.082;2022-09-06T15:31:23;3.55;;;1.58;;
48327;SDS011;34136;51.022;7.082;2022-09-06T15:34:09;2.15;;;1.10;;
48327;SDS011;34136;51.022;7.082;2022-09-06T15:36:55;3.50;;;1.45;;
48327;SDS011;34136;51.022;7.082;2022-09-06T15:39:42;2.15;;;1.10;;
48327;SDS011;34136;51.022;7.082;2022-09-06T15:42:28;5.03;;;1.42;;
48327;SDS011;34136;51.022;7.082;2022-09-06T15:45:14;5.25;;;1.45;;
48327;SDS011;34136;51.022;7.082;2022-09-06T15:48:00;3.72;;;1.10;;
48327;SDS011;34136;51.022;7.082;2022-09-06T15:50:46;3.97;;;1.15;;
48327;SDS011;34136;51.022;7.082;2022-09-06T15:53:32;5.05;;;1.20;;
48327;SDS011;34136;51.022;7.082;2022-09-06T15:56:18;3.13;;;1.10;;
48327;SDS011;34136;51.022;7.082;2022-09-06T15:59:05;6.82;;;1.45;;
48327;SDS011;34136;51.022;7.082;2022-09-06T16:01:51;2.72;;;1.17;;
48327;SDS011;34136;51.022;7.082;2022-09-06T16:04:38;3.08;;;1.10;;
48327;SDS011;34136;51.022;7.082;2022-09-06T16:07:24;3.83;;;1.20;;
48327;SDS011;34136;51.022;7.082;2022-09-06T16:10:11;3.85;;;1.20;;
48327;SDS011;34136;51.022;7.082;2022-09-06T16:12:57;4.03;;;1.30;;
48327;SDS011;34136;51.022;7.082;2022-09-06T16:15:54;2.20;;;1.10;;
48327;SDS011;34136;51.022;7.082;2022-09-06T16:18:42;3.08;;;1.20;;
48327;SDS011;34136;51.022;7.082;2022-09-06T16:21:30;5.07;;;1.17;;
48327;SDS011;34136;51.022;7.082;2022-09-06T16:24:17;3.45;;;1.73;;
48327;SDS011;34136;51.022;7.082;2022-09-06T16:27:03;4.22;;;1.10;;
48327;SDS011;34136;51.022;7.082;2022-09-06T16:29:50;4.25;;;1.48;;
48327;SDS011;34136;51.022;7.082;2022-09-06T16:32:36;1.90;;;1.00;;
48327;SDS011;34136;51.022;7.082;2022-09-06T16:35:23;4.22;;;1.00;;
48327;SDS011;34136;51.022;7.082;2022-09-06T16:38:09;4.55;;;1.50;;
48327;SDS011;34136;51.022;7.082;2022-09-06T16:40:55;4.60;;;1.02;;
48327;SDS011;34136;51.022;7.082;2022-09-06T16:43:43;2.25;;;1.05;;
48327;SDS011;34136;51.022;7.082;2022-09-06T16:46:31;2.53;;;1.00;;
48327;SDS011;34136;51.022;7.082;2022-09-06T16:49:18;5.03;;;1.30;;
48327;SDS011;34136;51.022;7.082;2022-09-06T16:52:05;5.65;;;1.52;;
48327;SDS011;34136;51.022;7.082;2022-09-06T16:54:51;3.35;;;1.23;;
48327;SDS011;34136;51.022;7.082;2022-09-06T16:57:37;4.15;;;1.15;;
48327;SDS011;34136;51.022;7.082;2022-09-06T17:00:24;2.97;;;1.05;;
48327;SDS011;34136;51.022;7.082;2022-09-06T17:03:10;5.15;;;1.17;;
48327;SDS011;34136;51.022;7.082;2022-09-06T17:05:56;3.53;;;1.30;;
48327;SDS011;34136;51.022;7.082;2022-09-06T17:08:43;6.50;;;1.38;;
48327;SDS011;34136;51.022;7.082;2022-09-06T17:11:30;5.07;;;1.23;;
48327;SDS011;34136;51.022;7.082;2022-09-06T17:14:16;4.95;;;1.55;;
48327;SDS011;34136;51.022;7.082;2022-09-06T17:17:03;3.03;;;1.20;;
48327;SDS011;34136;51.022;7.082;2022-09-06T17:19:50;3.95;;;1.50;;
48327;SDS011;34136;51.022;7.082;2022-09-06T17:22:36;4.22;;;1.20;;
48327;SDS011;34136;51.022;7.082;2022-09-06T17:25:22;3.50;;;1.20;;
48327;SDS011;34136;51.022;7.082;2022-09-06T17:28:09;4.10;;;1.23;;
48327;SDS011;34136;51.022;7.082;2022-09-06T17:30:58;2.30;;;1.17;;
48327;SDS011;34136;51.022;7.082;2022-09-06T17:33:46;3.20;;;1.30;;
48327;SDS011;34136;51.022;7.082;2022-09-06T17:36:33;4.28;;;1.40;;
48327;SDS011;34136;51.022;7.082;2022-09-06T17:39:20;4.15;;;1.27;;
48327;SDS011;34136;51.022;7.082;2022-09-06T17:42:06;3.17;;;1.13;;
48327;SDS011;34136;51.022;7.082;2022-09-06T17:44:53;3.25;;;1.13;;
48327;SDS011;34136;51.022;7.082;2022-09-06T17:47:39;8.00;;;1.50;;
48327;SDS011;34136;51.022;7.082;2022-09-06T17:50:28;5.57;;;1.80;;
48327;SDS011;34136;51.022;7.082;2022-09-06T17:53:14;4.25;;;1.17;;
48327;SDS011;34136;51.022;7.082;2022-09-06T17:56:02;3.63;;;1.40;;
48327;SDS011;34136;51.022;7.082;2022-09-06T17:58:53;2.97;;;1.20;;
48327;SDS011;34136;51.022;7.082;2022-09-06T18:01:47;5.65;;;1.40;;
48327;SDS011;34136;51.022;7.082;2022-09-06T18:04:34;3.85;;;1.42;;
48327;SDS011;34136;51.022;7.082;2022-09-06T18:07:20;3.03;;;1.50;;
48327;SDS011;34136;51.022;7.082;2022-09-06T18:10:07;2.97;;;1.40;;
48327;SDS011;34136;51.022;7.082;2022-09-06T18:12:54;3.25;;;1.48;;
48327;SDS011;34136;51.022;7.082;2022-09-06T18:15:40;4.47;;;1.50;;
48327;SDS011;34136;51.022;7.082;2022-09-06T18:18:27;3.58;;;1.27;;
48327;SDS011;34136;51.022;7.082;2022-09-06T18:21:13;2.67;;;1.40;;
48327;SDS011;34136;51.022;7.082;2022-09-06T18:24:00;4.15;;;1.50;;
48327;SDS011;34136;51.022;7.082;2022-09-06T18:26:47;4.00;;;1.67;;
48327;SDS011;34136;51.022;7.082;2022-09-06T18:29:33;5.13;;;2.50;;
48327;SDS011;34136;51.022;7.082;2022-09-06T18:32:19;4.70;;;1.38;;
48327;SDS011;34136;51.022;7.082;2022-09-06T18:35:06;4.25;;;1.52;;
48327;SDS011;34136;51.022;7.082;2022-09-06T18:37:53;4.88;;;1.48;;
48327;SDS011;34136;51.022;7.082;2022-09-06T18:40:39;3.20;;;1.17;;